createdAt,value
2023-05-02T00:08:46.642Z,4.20
2023-05-02T00:18:49.524Z,5.33
2023-05-02T00:28:51.985Z,4.27
2023-05-02T00:38:54.629Z,4.30
2023-05-02T00:48:57.237Z,4.55
2023-05-02T00:59:01.488Z,3.70
2023-05-02T01:09:22.237Z,3.93
2023-05-02T01:19:51.277Z,4.00
2023-05-02T01:29:56.731Z,4.07
2023-05-02T01:40:01.670Z,4.60
2023-05-02T01:50:07.939Z,4.18
2023-05-02T02:00:11.770Z,3.97
2023-05-02T02:10:17.692Z,3.90
2023-05-02T02:20:22.206Z,3.90
2023-05-02T02:30:24.881Z,4.13
2023-05-02T02:40:34.683Z,4.30
2023-05-02T02:50:46.985Z,3.77
2023-05-02T03:00:50.510Z,4.63
2023-05-02T03:10:54.593Z,4.23
2023-05-02T03:20:58.046Z,3.57
2023-05-02T03:31:01.473Z,3.80
2023-05-02T03:41:06.733Z,3.60
2023-05-02T03:51:10.179Z,4.27
2023-05-02T04:01:18.426Z,5.27
2023-05-02T04:11:25.912Z,4.30
2023-05-02T04:21:29.267Z,4.83
2023-05-02T04:31:33.303Z,4.13
2023-05-02T04:41:36.192Z,4.97
2023-05-02T04:51:42.216Z,5.10
2023-05-02T05:01:45.972Z,4.40
2023-05-02T05:11:49.226Z,4.22
2023-05-02T05:21:53.249Z,5.27
2023-05-02T05:31:58.429Z,4.93
2023-05-02T05:42:03.793Z,4.10
2023-05-02T05:52:09.971Z,4.60
2023-05-02T06:02:13.340Z,4.23
2023-05-02T06:12:17.544Z,4.60
2023-05-02T06:22:21.561Z,4.05
2023-05-02T06:32:34.180Z,4.00
2023-05-02T06:42:53.428Z,4.43
2023-05-02T06:53:06.244Z,4.47
2023-05-02T07:03:11.463Z,4.20
2023-05-02T07:13:14.504Z,4.90
2023-05-02T07:23:17.627Z,4.90
2023-05-02T07:33:29.021Z,4.88
2023-05-02T07:43:54.937Z,5.80
2023-05-02T07:54:35.928Z,4.60
2023-05-02T08:05:12.071Z,4.38
2023-05-02T08:15:48.030Z,4.37
2023-05-02T08:26:25.953Z,4.83
2023-05-02T08:37:03.955Z,4.60
2023-05-02T08:47:34.040Z,5.07
2023-05-02T08:57:37.124Z,4.70
2023-05-02T09:07:47.190Z,4.40
2023-05-02T09:17:50.756Z,4.30
2023-05-02T09:28:14.476Z,4.80
2023-05-02T09:38:23.206Z,4.73
2023-05-02T09:48:27.959Z,4.18
2023-05-02T09:58:32.974Z,4.10
2023-05-02T10:08:39.134Z,4.10
2023-05-02T10:18:42.134Z,4.28
2023-05-02T10:28:45.977Z,4.03
2023-05-02T10:38:51.563Z,4.53
2023-05-02T10:49:06.380Z,4.40
2023-05-02T10:59:28.829Z,4.00
2023-05-02T11:09:33.412Z,3.80
2023-05-02T11:20:19.227Z,4.78
2023-05-02T11:30:44.026Z,4.83
2023-05-02T11:40:54.699Z,4.73
2023-05-02T11:51:05.863Z,4.63
2023-05-02T12:01:16.522Z,4.90
2023-05-02T12:11:19.336Z,5.27
2023-05-02T12:21:22.205Z,4.75
2023-05-02T12:31:27.457Z,5.53
2023-05-02T12:41:35.263Z,3.77
2023-05-02T12:51:41.367Z,4.10
2023-05-02T13:01:45.647Z,4.45
2023-05-02T13:11:50.630Z,4.73
2023-05-02T13:21:55.645Z,5.37
2023-05-02T13:31:58.325Z,5.07
2023-05-02T13:42:04.499Z,4.60
2023-05-02T14:02:29.843Z,4.00
2023-05-02T14:12:32.589Z,4.40
2023-05-02T14:22:39.500Z,4.10
2023-05-02T14:32:45.055Z,4.82
2023-05-02T14:42:47.797Z,4.07
2023-05-02T14:52:51.176Z,4.00
2023-05-02T15:02:53.879Z,4.63
2023-05-02T15:12:56.685Z,3.95
2023-05-02T15:23:03.466Z,4.73
2023-05-02T15:33:06.395Z,4.87
2023-05-02T15:43:08.999Z,6.13
2023-05-02T15:53:11.501Z,4.70
2023-05-02T16:03:15.453Z,5.00
2023-05-02T16:13:18.094Z,5.25
2023-05-02T16:23:21.665Z,5.03
2023-05-02T16:33:24.206Z,5.30
2023-05-02T16:43:26.785Z,5.20
2023-05-02T16:53:30.632Z,5.25
2023-05-02T17:03:33.171Z,5.17
2023-05-02T17:13:35.848Z,5.07
2023-05-02T17:23:38.789Z,5.20
2023-05-02T17:33:42.311Z,5.90
2023-05-02T17:43:45.153Z,6.00
2023-05-02T17:53:50.209Z,5.05
2023-05-02T18:03:53.144Z,5.97
2023-05-02T18:13:55.936Z,5.25
2023-05-02T18:23:58.476Z,5.33
2023-05-02T18:34:02.309Z,4.90
2023-05-02T18:44:10.229Z,5.17
2023-05-02T18:54:13.135Z,5.00
2023-05-02T19:04:16.295Z,4.47
2023-05-02T19:14:19.077Z,4.80
2023-05-02T19:24:21.992Z,4.80
2023-05-02T19:34:24.796Z,4.63
2023-05-02T19:44:27.616Z,4.80
2023-05-02T19:54:31.083Z,5.43
2023-05-02T20:04:33.659Z,4.63
2023-05-02T20:14:36.267Z,4.70
2023-05-02T20:24:38.899Z,5.47
2023-05-02T20:34:41.575Z,5.47
2023-05-02T20:44:46.786Z,4.67
2023-05-02T20:54:49.831Z,5.13
2023-05-02T21:04:52.700Z,5.70
2023-05-02T21:14:55.274Z,5.17
2023-05-02T21:24:57.836Z,4.50
2023-05-02T21:35:00.930Z,4.07
2023-05-02T21:45:04.070Z,4.03
2023-05-02T21:55:07.006Z,3.67
2023-05-02T22:05:11.523Z,4.13
2023-05-02T22:15:14.394Z,4.53
2023-05-02T22:25:17.319Z,4.47
2023-05-02T22:35:19.964Z,4.80
2023-05-02T22:45:22.680Z,5.95
2023-05-02T22:55:26.153Z,5.47
2023-05-02T23:05:29.666Z,6.13
2023-05-02T23:15:32.197Z,6.03
2023-05-02T23:25:36.467Z,6.00
2023-05-02T23:35:39.224Z,6.40
2023-05-02T23:45:41.985Z,7.40
2023-05-02T23:55:44.682Z,7.47
